• Join FlightAware (Why Join?)
  • Login
  • US Flag 
01:50AM EDT


 

Airport Tracker/Info


-or-


 

Live Flight TrackerFlight Track Log ✈ EJA929 ✈ 07-Jul-2013 ✈ KSJC - KOAK

Flight Track Log - Related Links

Times and Time Zones

All times are in EDT time to prevent confusion due to time zone crossing. See the EJA929 flight status page for this flight to view local times or setup timezone preferences in your user account.

Time Position Orientation Groundspeed Altitude Reporting Facility
EDT Latitude Longitude Course Direction KTS MPH feet Rate Location/Type
12:06PM 37.3500 -121.9167 141° Southeast 171 197 1,800  Level Northern Cal TRACON
12:07PM 37.3000 -121.8667 141° Southeast 223 257 5,900 2,100 Climbing Northern Cal TRACON
12:08PM 37.2667 -121.9000 219° Southwest 221 254 6,000  Climbing Northern Cal TRACON
12:09PM 37.2333 -121.9667 238° Southwest 226 260 6,000  Level Northern Cal TRACON
12:10PM 37.2167 -122.0500 256° West 231 266 6,000  Level Northern Cal TRACON
12:11PM 37.2167 -122.1167 270° West 221 254 6,000  Level Northern Cal TRACON
12:12PM 37.2500 -122.1667 310° West 220 253 6,000  Level Northern Cal TRACON
12:13PM 37.2833 -122.2333 302° West 229 264 6,000  Level Northern Cal TRACON
12:14PM 37.3167 -122.3167 297° West 234 269 6,000  Level Northern Cal TRACON
12:15PM 37.3500 -122.3833 302° West 245 282 6,000  Level Northern Cal TRACON
12:16PM 37.4000 -122.4000 345° North 234 269 6,000  Level Northern Cal TRACON
12:17PM 37.4667 -122.4167 349° North 231 266 6,000  Level Northern Cal TRACON
12:18PM 37.5333 -122.4333 349° North 233 268 6,000 -360 Level Northern Cal TRACON
12:19PM 37.6000 -122.4500 349° North 232 267 5,300 -600 Descending Northern Cal TRACON
12:20PM 37.6500 -122.4833 332° Northwest 237 273 4,800 -660 Descending Northern Cal TRACON
12:21PM 37.7167 -122.5167 338° Northwest 227 261 4,000 -900 Descending Northern Cal TRACON
12:22PM 37.7667 -122.5667 322° Northwest 221 254 3,000 -540 Descending Northern Cal TRACON
12:23PM 37.8167 -122.5667 360° North 231 266 3,000  Level Northern Cal TRACON
12:24PM 37.8500 -122.5000 58° Northeast 223 257 3,000 -360 Level Northern Cal TRACON
12:25PM 37.8500 -122.4333 90° East 205 236 2,300 -540 Descending Northern Cal TRACON
12:26PM 37.8167 -122.3833 130° Southeast 176 203 2,000 -300 Descending Northern Cal TRACON
12:27PM 37.7833 -122.3500 142° Southeast 154 177 1,800 -360 Descending Northern Cal TRACON
12:28PM 37.7667 -122.3167 122° Southeast 130 150 1,300 -600 Descending Northern Cal TRACON
12:29PM 37.7333 -122.2667 130° Southeast 133 153 600 -720 Descending Northern Cal TRACON